createdAt,value
2023-02-23T00:00:32.463Z,10.63
2023-02-23T00:01:27.980Z,10.6
2023-02-23T00:02:27.953Z,10.59
2023-02-23T00:03:27.707Z,10.56
2023-02-23T00:04:27.634Z,10.55
2023-02-23T00:05:27.580Z,10.56
2023-02-23T00:06:27.682Z,10.57
2023-02-23T00:07:27.921Z,10.59
2023-02-23T00:08:27.674Z,10.57
2023-02-23T00:09:27.672Z,10.6
2023-02-23T00:10:27.661Z,10.6
2023-02-23T00:11:29.932Z,10.62
2023-02-23T00:12:27.917Z,10.62
2023-02-23T00:13:27.663Z,10.62
2023-02-23T00:14:27.618Z,10.63
2023-02-23T00:15:27.921Z,10.68
2023-02-23T00:16:27.712Z,10.67
2023-02-23T00:17:27.922Z,10.71
2023-02-23T00:18:27.678Z,10.73
2023-02-23T00:19:27.595Z,10.75
2023-02-23T00:20:27.756Z,10.78
2023-02-23T00:21:27.579Z,10.78
2023-02-23T00:22:32.353Z,10.77
2023-02-23T00:23:27.631Z,10.75
2023-02-23T00:24:27.695Z,10.72
2023-02-23T00:25:27.676Z,10.71
2023-02-23T00:26:27.677Z,10.73
2023-02-23T00:27:27.928Z,10.73
2023-02-23T00:28:27.674Z,10.72
2023-02-23T00:29:27.657Z,10.7
2023-02-23T00:30:27.909Z,10.63
2023-02-23T00:31:27.705Z,10.62
2023-02-23T00:32:28.045Z,10.62
2023-02-23T00:33:30.019Z,10.62
2023-02-23T00:34:27.651Z,10.62
2023-02-23T00:35:27.659Z,10.67
2023-02-23T00:36:27.692Z,10.64
2023-02-23T00:37:27.923Z,10.62
2023-02-23T00:38:27.633Z,10.69
2023-02-23T00:39:27.578Z,10.59
2023-02-23T00:40:27.572Z,10.66
2023-02-23T00:41:27.599Z,10.58
2023-02-23T00:42:27.713Z,10.53
2023-02-23T00:43:27.699Z,10.54
2023-02-23T00:44:30.016Z,10.54
2023-02-23T00:45:27.936Z,10.49
2023-02-23T00:46:27.549Z,10.52
2023-02-23T00:47:27.920Z,10.54
2023-02-23T00:48:27.687Z,10.6
2023-02-23T00:49:27.679Z,10.59
2023-02-23T00:50:27.676Z,10.58
2023-02-23T00:51:27.582Z,10.55
2023-02-23T00:52:27.922Z,10.65
2023-02-23T00:53:27.586Z,10.62
2023-02-23T00:54:27.712Z,10.66
2023-02-23T00:55:30.027Z,10.59
2023-02-23T00:56:27.682Z,10.58
2023-02-23T00:57:28.002Z,10.67
2023-02-23T00:58:27.645Z,10.65
2023-02-23T00:59:27.671Z,10.68
2023-02-23T01:00:27.919Z,10.63
2023-02-23T01:01:27.659Z,10.64
2023-02-23T01:02:27.960Z,10.56
2023-02-23T01:03:27.686Z,10.56
2023-02-23T01:04:27.757Z,10.65
2023-02-23T01:05:27.561Z,10.6
2023-02-23T01:06:29.939Z,10.59
2023-02-23T01:07:27.929Z,10.63
2023-02-23T01:08:27.646Z,10.67
2023-02-23T01:09:27.696Z,10.71
2023-02-23T01:10:27.641Z,10.66
2023-02-23T01:11:27.632Z,10.66
2023-02-23T01:12:27.934Z,10.66
2023-02-23T01:13:27.584Z,10.7
2023-02-23T01:14:27.705Z,10.66
2023-02-23T01:15:27.961Z,10.65
2023-02-23T01:16:27.709Z,10.65
2023-02-23T01:17:32.389Z,10.65
2023-02-23T01:18:27.698Z,10.67
2023-02-23T01:19:27.551Z,10.68
2023-02-23T01:20:27.628Z,10.67
2023-02-23T01:21:27.725Z,10.67
2023-02-23T01:22:27.918Z,10.7
2023-02-23T01:23:27.682Z,10.71
2023-02-23T01:24:27.631Z,10.66
2023-02-23T01:25:27.606Z,10.69
2023-02-23T01:26:27.667Z,10.66
2023-02-23T01:27:27.920Z,10.66
2023-02-23T01:28:30.045Z,10.71
2023-02-23T01:29:27.575Z,10.66
2023-02-23T01:30:27.949Z,10.66
2023-02-23T01:31:27.867Z,10.63
2023-02-23T01:32:27.954Z,10.65
2023-02-23T01:33:27.670Z,10.65
2023-02-23T01:34:27.665Z,10.66
2023-02-23T01:35:27.555Z,10.62
2023-02-23T01:36:27.701Z,10.62
2023-02-23T01:37:27.916Z,10.61
2023-02-23T01:38:27.645Z,10.63
2023-02-23T01:39:30.020Z,10.6
2023-02-23T01:40:27.638Z,10.64
2023-02-23T01:41:27.611Z,10.61
2023-02-23T01:42:27.917Z,10.59
2023-02-23T01:43:27.700Z,10.54
2023-02-23T01:44:27.597Z,10.52
2023-02-23T01:45:27.925Z,10.52
2023-02-23T01:46:27.645Z,10.46
2023-02-23T01:47:27.928Z,10.44
2023-02-23T01:48:27.707Z,10.4
2023-02-23T01:49:27.689Z,10.36
2023-02-23T01:50:29.974Z,10.29
2023-02-23T01:51:27.576Z,10.21
2023-02-23T01:52:27.925Z,10.18
2023-02-23T01:53:27.568Z,10.11
2023-02-23T01:54:27.656Z,10.07
2023-02-23T01:55:27.565Z,10.04
2023-02-23T01:56:27.593Z,10
2023-02-23T01:57:27.928Z,9.97
2023-02-23T01:58:27.626Z,9.95
2023-02-23T01:59:27.552Z,9.95
2023-02-23T02:00:27.913Z,9.95
2023-02-23T02:01:30.007Z,9.94
2023-02-23T02:02:27.925Z,9.92
2023-02-23T02:03:27.693Z,9.93
2023-02-23T02:04:27.645Z,9.94
2023-02-23T02:05:27.644Z,9.92
2023-02-23T02:06:27.663Z,9.88
2023-02-23T02:07:27.914Z,9.9
2023-02-23T02:08:27.562Z,9.9
2023-02-23T02:09:27.731Z,9.91
2023-02-23T02:10:27.667Z,9.9
2023-02-23T02:11:27.594Z,9.88
2023-02-23T02:12:32.409Z,9.87
2023-02-23T02:13:27.604Z,9.79
2023-02-23T02:14:27.694Z,9.8
2023-02-23T02:15:27.917Z,9.87
2023-02-23T02:16:27.600Z,9.82
2023-02-23T02:17:27.919Z,9.88
2023-02-23T02:18:27.677Z,9.9
2023-02-23T02:19:27.668Z,9.95
2023-02-23T02:20:27.644Z,10.01
2023-02-23T02:21:27.597Z,9.96
2023-02-23T02:22:27.914Z,9.94
2023-02-23T02:23:30.033Z,9.94
2023-02-23T02:24:29.175Z,9.96
2023-02-23T02:25:27.587Z,9.92
2023-02-23T02:26:27.680Z,9.85
2023-02-23T02:27:27.944Z,9.83
2023-02-23T02:28:27.633Z,9.82
2023-02-23T02:29:27.689Z,9.86
2023-02-23T02:30:27.972Z,9.9
2023-02-23T02:31:27.685Z,9.92
2023-02-23T02:32:28.019Z,9.89
2023-02-23T02:33:27.599Z,9.91
2023-02-23T02:34:29.914Z,9.92
2023-02-23T02:35:27.551Z,9.95
2023-02-23T02:36:27.731Z,9.95
2023-02-23T02:37:27.916Z,9.93
2023-02-23T02:38:27.550Z,9.93
2023-02-23T02:39:27.582Z,9.94
2023-02-23T02:40:27.608Z,9.98
2023-02-23T02:41:27.597Z,9.99
2023-02-23T02:42:27.925Z,9.95
2023-02-23T02:43:27.663Z,9.97
2023-02-23T02:44:27.574Z,10
2023-02-23T02:45:32.416Z,10
2023-02-23T02:46:27.696Z,10
2023-02-23T02:47:27.923Z,9.99
2023-02-23T02:48:27.684Z,10.03
2023-02-23T02:49:27.687Z,10.04
2023-02-23T02:50:27.580Z,10.04
2023-02-23T02:51:27.706Z,10.03
2023-02-23T02:52:27.916Z,10.05
2023-02-23T02:53:27.656Z,10.03
2023-02-23T02:54:27.656Z,10.06
2023-02-23T02:55:27.672Z,10.06
2023-02-23T02:56:29.940Z,10.04
2023-02-23T02:57:27.928Z,10.07
2023-02-23T02:58:27.590Z,10.07
2023-02-23T02:59:27.566Z,10.06
2023-02-23T03:00:27.687Z,10.06
2023-02-23T03:01:27.714Z,10.05
2023-02-23T03:02:27.922Z,10.05
2023-02-23T03:03:27.635Z,10.04
2023-02-23T03:04:27.670Z,10.03
2023-02-23T03:05:27.713Z,10.04
2023-02-23T03:06:27.664Z,10.03
2023-02-23T03:07:32.366Z,10.02
2023-02-23T03:08:27.601Z,10.02
2023-02-23T03:09:27.678Z,10.01
2023-02-23T03:10:27.700Z,10.01
2023-02-23T03:11:27.615Z,10.01
2023-02-23T03:12:27.653Z,10
2023-02-23T03:13:27.656Z,10.02
2023-02-23T03:14:27.626Z,10.03
2023-02-23T03:15:27.691Z,10.05
2023-02-23T03:16:27.646Z,10.06
2023-02-23T03:17:27.933Z,10.07
2023-02-23T03:18:29.934Z,10.07
2023-02-23T03:19:27.634Z,10.09
2023-02-23T03:20:27.675Z,10.11
2023-02-23T03:21:27.673Z,10.1
2023-02-23T03:22:27.924Z,10.08
2023-02-23T03:23:27.566Z,10.08
2023-02-23T03:24:27.570Z,10.07
2023-02-23T03:25:27.713Z,10.11
2023-02-23T03:26:27.690Z,10.1
2023-02-23T03:27:27.921Z,10.13
2023-02-23T03:28:27.571Z,10.12
2023-02-23T03:29:30.051Z,10.12
2023-02-23T03:30:27.992Z,10.11
2023-02-23T03:31:27.702Z,10.12
2023-02-23T03:32:28.041Z,10.14
2023-02-23T03:33:27.645Z,10.18
2023-02-23T03:34:27.596Z,10.17
2023-02-23T03:35:27.601Z,10.19
2023-02-23T03:36:27.633Z,10.21
2023-02-23T03:37:27.643Z,10.19
2023-02-23T03:38:27.713Z,10.18
2023-02-23T03:39:27.551Z,10.16
2023-02-23T03:40:29.981Z,10.2
2023-02-23T03:41:27.589Z,10.22
2023-02-23T03:42:27.924Z,10.25
2023-02-23T03:43:27.628Z,10.23
2023-02-23T03:44:27.699Z,10.21
2023-02-23T03:45:28.003Z,10.22
2023-02-23T03:46:27.680Z,10.21
2023-02-23T03:47:27.921Z,10.22
2023-02-23T03:48:27.571Z,10.22
2023-02-23T03:49:27.601Z,10.2
2023-02-23T03:50:27.676Z,10.24
2023-02-23T03:51:30.031Z,10.24
2023-02-23T03:52:27.920Z,10.27
2023-02-23T03:53:27.600Z,10.3
2023-02-23T03:54:27.576Z,10.31
2023-02-23T03:55:27.664Z,10.33
2023-02-23T03:56:27.706Z,10.32
2023-02-23T03:57:27.680Z,10.34
2023-02-23T03:58:27.609Z,10.34
2023-02-23T03:59:27.646Z,10.33
2023-02-23T04:00:27.921Z,10.36
2023-02-23T04:01:27.622Z,10.36
2023-02-23T04:02:29.948Z,10.36
2023-02-23T04:03:27.591Z,10.32
2023-02-23T04:04:27.674Z,10.32
2023-02-23T04:05:27.765Z,10.27
2023-02-23T04:06:27.642Z,10.27
2023-02-23T04:07:27.925Z,10.29
2023-02-23T04:08:27.683Z,10.27
2023-02-23T04:09:27.563Z,10.3
2023-02-23T04:10:27.666Z,10.32
2023-02-23T04:11:27.616Z,10.32
2023-02-23T04:12:27.922Z,10.32
2023-02-23T04:13:30.000Z,10.31
2023-02-23T04:14:27.651Z,10.3
2023-02-23T04:15:27.925Z,10.32
2023-02-23T04:16:27.738Z,10.31
2023-02-23T04:17:27.920Z,10.31
2023-02-23T04:18:27.669Z,10.29
2023-02-23T04:19:27.568Z,10.29
2023-02-23T04:20:27.706Z,10.3
2023-02-23T04:21:27.594Z,10.29
2023-02-23T04:22:27.914Z,10.33
2023-02-23T04:23:27.707Z,10.32
2023-02-23T04:24:29.898Z,10.36
2023-02-23T04:25:27.677Z,10.34
2023-02-23T04:26:27.580Z,10.33
2023-02-23T04:27:27.659Z,10.36
2023-02-23T04:28:27.702Z,10.34
2023-02-23T04:29:27.744Z,10.36
2023-02-23T04:30:27.965Z,10.34
2023-02-23T04:31:27.901Z,10.44
2023-02-23T04:32:28.021Z,10.45
2023-02-23T04:33:27.693Z,10.44
2023-02-23T04:34:27.601Z,10.38
2023-02-23T04:35:30.001Z,10.44
2023-02-23T04:36:27.715Z,10.51
2023-02-23T04:37:27.936Z,10.45
2023-02-23T04:38:27.686Z,10.49
2023-02-23T04:39:27.591Z,10.57
2023-02-23T04:40:27.704Z,10.51
2023-02-23T04:41:27.604Z,10.56
2023-02-23T04:42:27.959Z,10.58
2023-02-23T04:43:27.647Z,10.51
2023-02-23T04:44:27.763Z,10.54
2023-02-23T04:45:27.939Z,10.52
2023-02-23T04:46:29.962Z,10.51
2023-02-23T04:47:27.929Z,10.54
2023-02-23T04:48:27.686Z,10.57
2023-02-23T04:49:27.744Z,10.62
2023-02-23T04:50:27.679Z,10.6
2023-02-23T04:51:27.707Z,10.58
2023-02-23T04:52:27.939Z,10.58
2023-02-23T04:53:27.693Z,10.6
2023-02-23T04:54:27.600Z,10.61
2023-02-23T04:55:27.625Z,10.65
2023-02-23T04:56:27.662Z,10.6
2023-02-23T04:57:32.390Z,10.6
2023-02-23T04:58:27.601Z,10.64
2023-02-23T04:59:27.702Z,10.63
2023-02-23T05:00:27.573Z,10.65
2023-02-23T05:01:27.914Z,10.66
2023-02-23T05:02:27.938Z,10.68
2023-02-23T05:03:27.568Z,10.67
2023-02-23T05:04:27.733Z,10.65
2023-02-23T05:05:27.606Z,10.64
2023-02-23T05:06:27.599Z,10.64
2023-02-23T05:07:27.934Z,10.68
2023-02-23T05:08:29.991Z,10.69
2023-02-23T05:09:27.608Z,10.69
2023-02-23T05:10:27.562Z,10.72
2023-02-23T05:11:27.537Z,10.73
2023-02-23T05:12:27.932Z,10.75
2023-02-23T05:13:27.707Z,10.74
2023-02-23T05:14:27.653Z,10.73
2023-02-23T05:15:27.552Z,10.75
2023-02-23T05:16:27.646Z,10.74
2023-02-23T05:17:27.936Z,10.78
2023-02-23T05:18:27.566Z,10.8
2023-02-23T05:19:29.905Z,10.78
2023-02-23T05:20:27.686Z,10.79
2023-02-23T05:21:27.700Z,10.81
2023-02-23T05:22:27.937Z,10.79
2023-02-23T05:23:27.688Z,10.76
2023-02-23T05:24:27.670Z,10.76
2023-02-23T05:25:27.568Z,10.86
2023-02-23T05:26:27.679Z,10.95
2023-02-23T05:27:27.928Z,10.88
2023-02-23T05:28:27.675Z,10.94
2023-02-23T05:29:27.585Z,10.94
2023-02-23T05:30:30.076Z,10.92
2023-02-23T05:31:27.877Z,10.91
2023-02-23T05:32:27.989Z,10.92
2023-02-23T05:33:27.688Z,10.93
2023-02-23T05:34:27.575Z,10.9
2023-02-23T05:35:27.703Z,10.87
2023-02-23T05:36:27.690Z,10.93
2023-02-23T05:37:28.049Z,10.85
2023-02-23T05:38:27.705Z,10.86
2023-02-23T05:39:27.568Z,10.9
2023-02-23T05:40:27.690Z,10.9
2023-02-23T05:41:29.927Z,10.88
2023-02-23T05:42:27.927Z,10.94
2023-02-23T05:43:27.639Z,10.93
2023-02-23T05:44:27.688Z,10.91
2023-02-23T05:45:27.579Z,10.88
2023-02-23T05:46:27.672Z,10.78
2023-02-23T05:47:27.612Z,10.71
2023-02-23T05:48:27.684Z,10.69
2023-02-23T05:49:27.663Z,10.66
2023-02-23T05:50:27.670Z,10.63
2023-02-23T05:51:27.555Z,10.59
2023-02-23T05:52:32.402Z,10.58
2023-02-23T05:53:27.699Z,10.56
2023-02-23T05:54:27.548Z,10.57
2023-02-23T05:55:27.685Z,10.53
2023-02-23T05:56:27.690Z,10.5
2023-02-23T05:57:27.931Z,10.5
2023-02-23T05:58:27.632Z,10.53
2023-02-23T05:59:27.554Z,10.54
2023-02-23T06:00:27.670Z,10.53
2023-02-23T06:01:27.683Z,10.51
2023-02-23T06:02:27.988Z,10.48
2023-02-23T06:03:30.027Z,10.46
2023-02-23T06:04:27.604Z,10.44
2023-02-23T06:05:27.776Z,10.49
2023-02-23T06:06:27.665Z,10.5
2023-02-23T06:07:27.929Z,10.54
2023-02-23T06:08:27.586Z,10.56
2023-02-23T06:09:27.600Z,10.53
2023-02-23T06:10:27.648Z,10.55
2023-02-23T06:11:27.603Z,10.51
2023-02-23T06:12:27.930Z,10.51
2023-02-23T06:13:27.639Z,10.51
2023-02-23T06:14:30.009Z,10.56
2023-02-23T06:15:29.694Z,10.58
2023-02-23T06:16:27.821Z,10.53
2023-02-23T06:17:27.939Z,10.55
2023-02-23T06:18:27.675Z,10.47
2023-02-23T06:19:27.676Z,10.45
2023-02-23T06:20:27.687Z,10.48
2023-02-23T06:21:27.641Z,10.5
2023-02-23T06:22:27.939Z,10.51
2023-02-23T06:23:27.668Z,10.49
2023-02-23T06:24:27.584Z,10.58
2023-02-23T06:25:30.009Z,10.6
2023-02-23T06:26:27.650Z,10.62
2023-02-23T06:27:27.937Z,10.64
2023-02-23T06:28:27.643Z,10.65
2023-02-23T06:29:27.669Z,10.64
2023-02-23T06:30:27.736Z,10.65
2023-02-23T06:31:27.736Z,10.7
2023-02-23T06:32:28.033Z,10.66
2023-02-23T06:33:27.603Z,10.69
2023-02-23T06:34:27.566Z,10.55
2023-02-23T06:35:27.616Z,10.48
2023-02-23T06:36:30.012Z,10.51
2023-02-23T06:37:27.936Z,10.5
2023-02-23T06:38:27.598Z,10.45
2023-02-23T06:39:27.676Z,10.47
2023-02-23T06:40:27.666Z,10.48
2023-02-23T06:41:27.535Z,10.45
2023-02-23T06:42:27.950Z,10.48
2023-02-23T06:43:27.650Z,10.46
2023-02-23T06:44:27.696Z,10.47
2023-02-23T06:45:27.581Z,10.51
2023-02-23T06:46:27.618Z,10.53
2023-02-23T06:47:32.414Z,10.57
2023-02-23T06:48:27.593Z,10.62
2023-02-23T06:49:27.686Z,10.66
2023-02-23T06:50:27.686Z,10.68
2023-02-23T06:51:27.677Z,10.66
2023-02-23T06:52:27.927Z,10.63
2023-02-23T06:53:27.734Z,10.64
2023-02-23T06:54:27.696Z,10.71
2023-02-23T06:55:27.631Z,10.75
2023-02-23T06:56:27.632Z,10.73
2023-02-23T06:57:27.933Z,10.74
2023-02-23T06:58:30.025Z,10.77
2023-02-23T06:59:27.631Z,10.79
2023-02-23T07:00:27.695Z,10.83
2023-02-23T07:01:27.617Z,10.88
2023-02-23T07:02:27.924Z,10.9
2023-02-23T07:03:27.660Z,10.91
2023-02-23T07:04:27.694Z,10.91
2023-02-23T07:05:27.584Z,10.92
2023-02-23T07:06:27.693Z,10.91
2023-02-23T07:07:27.940Z,10.9
2023-02-23T07:08:27.693Z,10.93
2023-02-23T07:09:30.704Z,10.93
2023-02-23T07:10:27.635Z,10.94
2023-02-23T07:11:27.602Z,10.92
2023-02-23T07:12:27.929Z,10.91
2023-02-23T07:13:27.586Z,10.95
2023-02-23T07:14:27.688Z,10.98
2023-02-23T07:15:27.666Z,10.98
2023-02-23T07:16:27.756Z,10.98
2023-02-23T07:17:27.926Z,11.03
2023-02-23T07:18:27.737Z,11.05
2023-02-23T07:19:27.638Z,11.09
2023-02-23T07:20:30.010Z,11.11
2023-02-23T07:21:27.665Z,11.17
2023-02-23T07:22:27.918Z,11.23
2023-02-23T07:23:27.569Z,11.24
2023-02-23T07:24:27.588Z,11.25
2023-02-23T07:25:27.637Z,11.26
2023-02-23T07:26:27.647Z,11.27
2023-02-23T07:27:27.929Z,11.29
2023-02-23T07:28:27.612Z,11.3
2023-02-23T07:29:27.586Z,11.35
2023-02-23T07:30:27.753Z,11.36
2023-02-23T07:31:30.010Z,11.39
2023-02-23T07:32:28.057Z,11.44
2023-02-23T07:33:27.690Z,11.47
2023-02-23T07:34:27.679Z,11.48
2023-02-23T07:35:27.659Z,11.49
2023-02-23T07:36:27.736Z,11.45
2023-02-23T07:37:27.913Z,11.46
2023-02-23T07:38:27.917Z,11.48
2023-02-23T07:39:27.643Z,11.48
2023-02-23T07:40:27.672Z,11.48
2023-02-23T07:41:27.654Z,11.51
2023-02-23T07:42:32.912Z,11.55
2023-02-23T07:43:27.918Z,11.57
2023-02-23T07:44:27.676Z,11.6
2023-02-23T07:45:27.581Z,11.64
2023-02-23T07:46:27.925Z,11.71
2023-02-23T07:47:27.696Z,11.77
2023-02-23T07:48:27.938Z,11.86
2023-02-23T07:49:27.705Z,11.93
2023-02-23T07:50:27.596Z,11.98
2023-02-23T07:51:27.666Z,12.04
2023-02-23T07:52:27.675Z,12.14
2023-02-23T07:53:32.401Z,12.16
2023-02-23T07:54:27.651Z,12.19
2023-02-23T07:55:27.604Z,12.19
2023-02-23T07:56:27.696Z,12.23
2023-02-23T07:57:27.644Z,12.26
2023-02-23T07:58:27.924Z,12.29
2023-02-23T07:59:27.569Z,12.29
2023-02-23T08:00:27.662Z,12.31
2023-02-23T08:01:27.968Z,12.39
2023-02-23T08:02:27.671Z,12.46
2023-02-23T08:03:27.922Z,12.45
2023-02-23T08:04:30.055Z,12.46
2023-02-23T08:05:27.653Z,12.47
2023-02-23T08:06:27.607Z,12.47
2023-02-23T08:07:27.662Z,12.5
2023-02-23T08:08:27.938Z,12.47
2023-02-23T08:09:27.568Z,12.47
2023-02-23T08:10:27.615Z,12.52
2023-02-23T08:11:27.610Z,12.57
2023-02-23T08:12:27.590Z,12.54
2023-02-23T08:13:27.927Z,12.44
2023-02-23T08:14:27.672Z,12.35
2023-02-23T08:15:29.921Z,12.28
2023-02-23T08:16:27.964Z,12.19
2023-02-23T08:17:27.568Z,12.18
2023-02-23T08:18:28.048Z,12.2
2023-02-23T08:19:27.646Z,12.14
2023-02-23T08:20:27.562Z,12.11
2023-02-23T08:21:28.525Z,12.08
2023-02-23T08:22:27.597Z,12.06
2023-02-23T08:23:27.932Z,12.07
2023-02-23T08:24:27.599Z,12.15
2023-02-23T08:25:27.663Z,12.15
2023-02-23T08:26:30.063Z,12.16
2023-02-23T08:27:27.675Z,12.14
2023-02-23T08:28:27.969Z,12.12
2023-02-23T08:29:27.614Z,12.16
2023-02-23T08:30:27.805Z,12.17
2023-02-23T08:31:28.084Z,12.14
2023-02-23T08:32:27.699Z,12.13
2023-02-23T08:33:27.972Z,12.19
2023-02-23T08:34:27.683Z,12.22
2023-02-23T08:35:27.686Z,12.26
2023-02-23T08:36:27.708Z,12.31
2023-02-23T08:37:29.931Z,12.37
2023-02-23T08:38:27.920Z,12.36
2023-02-23T08:39:27.651Z,12.33
2023-02-23T08:40:27.561Z,12.26
2023-02-23T08:41:27.602Z,12.27
2023-02-23T08:42:27.701Z,12.27
2023-02-23T08:43:27.923Z,12.28
2023-02-23T08:44:27.699Z,12.2
2023-02-23T08:45:27.687Z,12.11
2023-02-23T08:46:28.000Z,12.09
2023-02-23T08:47:27.611Z,12.07
2023-02-23T08:48:32.357Z,12.04
2023-02-23T08:49:27.699Z,12
2023-02-23T08:50:27.680Z,11.97
2023-02-23T08:51:27.684Z,11.89
2023-02-23T08:52:27.688Z,11.87
2023-02-23T08:53:27.927Z,11.9
2023-02-23T08:54:27.708Z,11.87
2023-02-23T08:55:27.655Z,11.9
2023-02-23T08:56:27.640Z,11.9
2023-02-23T08:57:27.656Z,12
2023-02-23T08:58:27.913Z,12.17
2023-02-23T08:59:30.001Z,12.34
2023-02-23T09:00:27.569Z,12.41
2023-02-23T09:01:27.967Z,12.46
2023-02-23T09:02:27.686Z,12.49
2023-02-23T09:03:27.916Z,12.52
2023-02-23T09:04:27.588Z,12.56
2023-02-23T09:05:27.612Z,12.58
2023-02-23T09:06:27.553Z,12.6
2023-02-23T09:07:27.708Z,12.61
2023-02-23T09:08:27.926Z,12.63
2023-02-23T09:09:27.652Z,12.67
2023-02-23T09:10:29.870Z,12.75
2023-02-23T09:11:27.593Z,12.8
2023-02-23T09:12:27.668Z,12.78
2023-02-23T09:13:27.921Z,12.8
2023-02-23T09:14:27.689Z,12.88
2023-02-23T09:15:27.627Z,12.97
2023-02-23T09:16:27.924Z,13.07
2023-02-23T09:17:27.702Z,13.15
2023-02-23T09:18:27.911Z,13.27
2023-02-23T09:19:27.653Z,13.37
2023-02-23T09:20:27.672Z,13.43
2023-02-23T09:21:30.009Z,13.47
2023-02-23T09:22:27.547Z,13.47
2023-02-23T09:23:27.925Z,13.5
2023-02-23T09:24:27.674Z,13.5
2023-02-23T09:25:27.683Z,13.44
2023-02-23T09:26:27.627Z,13.44
2023-02-23T09:27:27.546Z,13.47
2023-02-23T09:28:29.686Z,13.56
2023-02-23T09:29:27.668Z,13.67
2023-02-23T09:30:27.675Z,13.74
2023-02-23T09:31:27.943Z,13.7
2023-02-23T09:32:30.142Z,13.69
2023-02-23T09:33:27.915Z,13.68
2023-02-23T09:34:27.637Z,13.69
2023-02-23T09:35:27.562Z,13.62
2023-02-23T09:36:27.713Z,13.57
2023-02-23T09:37:27.684Z,13.49
2023-02-23T09:38:27.923Z,13.45
2023-02-23T09:39:37.620Z,13.42
2023-02-23T09:40:27.652Z,13.37
2023-02-23T09:41:27.604Z,13.36
2023-02-23T09:42:27.704Z,13.31
2023-02-23T09:43:32.484Z,13.28
2023-02-23T09:44:27.645Z,13.29
2023-02-23T09:45:27.706Z,13.32
2023-02-23T09:46:28.048Z,13.29
2023-02-23T09:47:27.666Z,13.26
2023-02-23T09:48:27.908Z,13.24
2023-02-23T09:49:27.620Z,13.3
2023-02-23T09:50:27.668Z,13.31
2023-02-23T09:51:27.666Z,13.34
2023-02-23T09:52:27.645Z,13.45
2023-02-23T09:53:27.950Z,13.48
2023-02-23T09:54:29.939Z,13.58
2023-02-23T09:55:27.617Z,13.66
2023-02-23T09:56:27.630Z,13.68
2023-02-23T09:57:27.639Z,13.75
2023-02-23T09:58:27.917Z,13.9
2023-02-23T09:59:27.656Z,14.02
2023-02-23T10:00:27.696Z,14.08
2023-02-23T10:01:27.733Z,14.12
2023-02-23T10:02:27.709Z,14.19
2023-02-23T10:03:27.924Z,14.24
2023-02-23T10:04:27.652Z,14.31
2023-02-23T10:05:29.929Z,14.38
2023-02-23T10:06:27.699Z,14.35
2023-02-23T10:07:27.560Z,14.32
2023-02-23T10:08:27.917Z,14.34
2023-02-23T10:09:27.677Z,14.34
2023-02-23T10:10:27.727Z,14.26
2023-02-23T10:11:27.608Z,14.23
2023-02-23T10:12:27.651Z,14.25
2023-02-23T10:13:27.935Z,14.34
2023-02-23T10:14:27.622Z,14.44
2023-02-23T10:15:27.606Z,14.59
2023-02-23T10:16:32.456Z,14.73
2023-02-23T10:17:27.672Z,14.89
2023-02-23T10:18:44.100Z,15.07
2023-02-23T10:19:27.680Z,15.27
2023-02-23T10:20:27.603Z,15.38
2023-02-23T10:21:27.695Z,15.39
2023-02-23T10:22:27.615Z,15.44
2023-02-23T10:23:29.680Z,15.41
2023-02-23T10:24:27.703Z,15.48
2023-02-23T10:25:27.670Z,15.61
2023-02-23T10:26:27.698Z,15.75
2023-02-23T10:27:30.003Z,15.84
2023-02-23T10:28:27.915Z,15.89
2023-02-23T10:29:27.579Z,16.03
2023-02-23T10:30:27.725Z,16.15
2023-02-23T10:31:28.056Z,16.29
2023-02-23T10:32:27.882Z,16.32
2023-02-23T10:33:27.917Z,16.25
2023-02-23T10:34:27.649Z,16.21
2023-02-23T10:35:27.680Z,16.02
2023-02-23T10:36:27.590Z,15.85
2023-02-23T10:37:27.794Z,15.63
2023-02-23T10:38:32.503Z,15.48
2023-02-23T10:39:27.738Z,15.4
2023-02-23T10:40:27.745Z,15.29
2023-02-23T10:41:27.731Z,15.2
2023-02-23T10:42:27.699Z,15.15
2023-02-23T10:43:28.080Z,15.12
2023-02-23T10:44:27.708Z,15.13
2023-02-23T10:45:27.702Z,15.1
2023-02-23T10:46:28.336Z,14.99
2023-02-23T10:47:27.781Z,14.93
2023-02-23T10:48:27.961Z,14.91
2023-02-23T10:49:30.346Z,14.83
2023-02-23T10:50:27.680Z,14.75
2023-02-23T10:51:27.566Z,14.74
2023-02-23T10:52:27.698Z,14.75
2023-02-23T10:53:27.923Z,14.86
2023-02-23T10:54:27.701Z,14.94
2023-02-23T10:55:27.687Z,14.96
2023-02-23T10:56:27.620Z,14.98
2023-02-23T10:57:27.925Z,14.87
2023-02-23T10:58:27.928Z,14.68
2023-02-23T10:59:27.647Z,14.55
2023-02-23T11:00:30.002Z,14.45
2023-02-23T11:01:27.949Z,14.31
2023-02-23T11:02:27.748Z,14.22
2023-02-23T11:03:27.922Z,14.19
2023-02-23T11:04:27.753Z,14.18
2023-02-23T11:05:27.790Z,14.22
2023-02-23T11:06:27.651Z,14.28
2023-02-23T11:07:27.814Z,14.36
2023-02-23T11:08:28.481Z,14.39
2023-02-23T11:09:43.232Z,14.38
2023-02-23T11:10:27.709Z,14.49
2023-02-23T11:11:29.960Z,14.64
2023-02-23T11:12:27.570Z,14.84
2023-02-23T11:13:28.517Z,14.96
2023-02-23T11:14:27.630Z,15.12
2023-02-23T11:15:38.885Z,15.18
2023-02-23T11:16:27.951Z,15.35
2023-02-23T11:17:27.811Z,15.38
2023-02-23T11:18:28.412Z,15.43
2023-02-23T11:19:27.920Z,15.47
2023-02-23T11:20:27.627Z,15.62
2023-02-23T11:21:27.599Z,15.71
2023-02-23T11:22:30.025Z,15.7
2023-02-23T11:23:27.920Z,15.8
2023-02-23T11:24:27.679Z,15.84
2023-02-23T11:25:27.691Z,15.79
2023-02-23T11:26:27.661Z,15.77
2023-02-23T11:27:27.586Z,15.81
2023-02-23T11:28:27.917Z,15.9
2023-02-23T11:29:27.637Z,16.07
2023-02-23T11:30:27.681Z,16.07
2023-02-23T11:31:27.980Z,16.11
2023-02-23T11:32:27.789Z,16.18
2023-02-23T11:33:32.438Z,16.23
2023-02-23T11:34:27.657Z,16.3
2023-02-23T11:35:27.695Z,16.28
2023-02-23T11:36:27.552Z,16.32
2023-02-23T11:37:27.577Z,16.3
2023-02-23T11:38:27.912Z,16.26
2023-02-23T11:39:27.695Z,16.32
2023-02-23T11:40:27.629Z,16.35
2023-02-23T11:41:27.528Z,16.42
2023-02-23T11:42:27.583Z,16.57
2023-02-23T11:43:27.924Z,16.7
2023-02-23T11:44:30.023Z,16.69
2023-02-23T11:45:27.551Z,16.59
2023-02-23T11:46:28.095Z,16.67
2023-02-23T11:47:27.578Z,16.68
2023-02-23T11:48:27.915Z,16.65
2023-02-23T11:49:27.592Z,16.54
2023-02-23T11:50:27.701Z,16.51
2023-02-23T11:51:27.677Z,16.43
2023-02-23T11:52:27.671Z,16.41
2023-02-23T11:53:27.916Z,16.38
2023-02-23T11:54:27.593Z,16.3
2023-02-23T11:55:29.894Z,16.33
2023-02-23T11:56:27.577Z,16.48
2023-02-23T11:57:27.562Z,16.67
2023-02-23T11:58:27.915Z,16.94
2023-02-23T11:59:27.661Z,17.11
2023-02-23T12:00:27.649Z,17.18
2023-02-23T12:01:27.916Z,17.34
2023-02-23T12:02:27.570Z,17.54
2023-02-23T12:03:27.922Z,17.68
2023-02-23T12:04:27.601Z,17.74
2023-02-23T12:05:27.567Z,17.68
2023-02-23T12:06:30.187Z,17.79
2023-02-23T12:07:27.600Z,18.23
2023-02-23T12:08:27.933Z,18.23
2023-02-23T12:09:27.682Z,18.34
2023-02-23T12:10:27.613Z,18.25
2023-02-23T12:11:27.608Z,17.97
2023-02-23T12:12:27.655Z,17.8
2023-02-23T12:13:27.931Z,17.61
2023-02-23T12:14:27.643Z,17.32
2023-02-23T12:15:27.528Z,17.33
2023-02-23T12:16:27.935Z,17.38
2023-02-23T12:17:30.016Z,17.47
2023-02-23T12:18:27.931Z,17.56
2023-02-23T12:19:27.680Z,17.46
2023-02-23T12:20:27.605Z,17.41
2023-02-23T12:21:27.691Z,17.31
2023-02-23T12:22:27.688Z,17.22
2023-02-23T12:23:27.948Z,17.18
2023-02-23T12:24:27.660Z,17.01
2023-02-23T12:25:27.641Z,16.81
2023-02-23T12:26:27.662Z,16.52
2023-02-23T12:27:27.636Z,16.3
2023-02-23T12:28:32.390Z,16.16
2023-02-23T12:29:27.597Z,16.12
2023-02-23T12:30:27.708Z,16.15
2023-02-23T12:31:28.064Z,16.07
2023-02-23T12:32:27.900Z,16.03
2023-02-23T12:33:27.929Z,15.93
2023-02-23T12:34:27.648Z,15.8
2023-02-23T12:35:29.594Z,15.77
2023-02-23T12:36:27.594Z,15.78
2023-02-23T12:37:27.572Z,15.83
2023-02-23T12:38:27.942Z,15.78
2023-02-23T12:39:29.946Z,15.59
2023-02-23T12:40:27.699Z,15.5
2023-02-23T12:41:27.597Z,15.43
2023-02-23T12:42:27.703Z,15.48
2023-02-23T12:43:27.924Z,15.55
2023-02-23T12:44:27.598Z,15.61
2023-02-23T12:45:27.648Z,15.65
2023-02-23T12:46:27.743Z,15.72
2023-02-23T12:47:27.638Z,15.76
2023-02-23T12:48:27.923Z,15.71
2023-02-23T12:49:27.695Z,15.62
2023-02-23T12:50:29.890Z,15.58
2023-02-23T12:51:27.706Z,15.5
2023-02-23T12:52:27.700Z,15.42
2023-02-23T12:53:27.908Z,15.4
2023-02-23T12:54:27.688Z,15.45
2023-02-23T12:55:27.686Z,15.52
2023-02-23T12:56:27.672Z,15.62
2023-02-23T12:57:27.693Z,15.64